sensor_id;sensor_type;location;lat;lon;timestamp;temperature;humidity
66213;SHT31;53015;50.046;8.238;2024-01-15T00:00:29;-0.53;87.22
66213;SHT31;53015;50.046;8.238;2024-01-15T00:02:54;-0.47;86.54
66213;SHT31;53015;50.046;8.238;2024-01-15T00:05:20;-0.48;86.18
66213;SHT31;53015;50.046;8.238;2024-01-15T00:07:45;-0.38;85.82
66213;SHT31;53015;50.046;8.238;2024-01-15T00:10:11;-0.42;85.68
66213;SHT31;53015;50.046;8.238;2024-01-15T00:12:37;-0.47;85.71
66213;SHT31;53015;50.046;8.238;2024-01-15T00:15:04;-0.48;86.15
66213;SHT31;53015;50.046;8.238;2024-01-15T00:17:30;-0.40;86.00
66213;SHT31;53015;50.046;8.238;2024-01-15T00:19:55;-0.38;85.72
66213;SHT31;53015;50.046;8.238;2024-01-15T00:22:20;-0.31;86.32
66213;SHT31;53015;50.046;8.238;2024-01-15T00:24:46;-0.30;84.95
66213;SHT31;53015;50.046;8.238;2024-01-15T00:27:11;-0.17;85.71
66213;SHT31;53015;50.046;8.238;2024-01-15T00:29:38;-0.09;85.67
66213;SHT31;53015;50.046;8.238;2024-01-15T00:32:04;-0.01;84.53
66213;SHT31;53015;50.046;8.238;2024-01-15T00:34:30;-0.14;84.34
66213;SHT31;53015;50.046;8.238;2024-01-15T00:36:55;-0.20;84.56
66213;SHT31;53015;50.046;8.238;2024-01-15T00:39:21;-0.23;85.19
66213;SHT31;53015;50.046;8.238;2024-01-15T00:41:46;-0.27;85.47
66213;SHT31;53015;50.046;8.238;2024-01-15T00:44:12;-0.21;85.07
66213;SHT31;53015;50.046;8.238;2024-01-15T00:46:43;-0.12;84.55
66213;SHT31;53015;50.046;8.238;2024-01-15T00:49:09;-0.06;85.16
66213;SHT31;53015;50.046;8.238;2024-01-15T00:51:34;0.01;84.09
66213;SHT31;53015;50.046;8.238;2024-01-15T00:54:00;0.07;83.69
66213;SHT31;53015;50.046;8.238;2024-01-15T00:56:25;-0.01;83.28
66213;SHT31;53015;50.046;8.238;2024-01-15T00:58:51;-0.19;83.50
66213;SHT31;53015;50.046;8.238;2024-01-15T01:01:16;-0.31;83.57
66213;SHT31;53015;50.046;8.238;2024-01-15T01:03:43;-0.42;84.33
66213;SHT31;53015;50.046;8.238;2024-01-15T01:06:08;-0.36;84.32
66213;SHT31;53015;50.046;8.238;2024-01-15T01:08:34;-0.34;84.19
66213;SHT31;53015;50.046;8.238;2024-01-15T01:11:00;-0.36;84.28
66213;SHT31;53015;50.046;8.238;2024-01-15T01:13:25;-0.40;84.36
66213;SHT31;53015;50.046;8.238;2024-01-15T01:15:50;-0.41;84.26
66213;SHT31;53015;50.046;8.238;2024-01-15T01:18:16;-0.37;84.25
66213;SHT31;53015;50.046;8.238;2024-01-15T01:20:43;-0.37;84.30
66213;SHT31;53015;50.046;8.238;2024-01-15T01:23:09;-0.34;84.27
66213;SHT31;53015;50.046;8.238;2024-01-15T01:25:34;-0.24;84.26
66213;SHT31;53015;50.046;8.238;2024-01-15T01:27:59;-0.30;83.70
66213;SHT31;53015;50.046;8.238;2024-01-15T01:30:25;-0.23;83.78
66213;SHT31;53015;50.046;8.238;2024-01-15T01:32:51;-0.27;83.93
66213;SHT31;53015;50.046;8.238;2024-01-15T01:35:16;-0.31;83.94
66213;SHT31;53015;50.046;8.238;2024-01-15T01:37:43;-0.29;84.21
66213;SHT31;53015;50.046;8.238;2024-01-15T01:40:09;-0.29;84.36
66213;SHT31;53015;50.046;8.238;2024-01-15T01:42:35;-0.30;84.10
66213;SHT31;53015;50.046;8.238;2024-01-15T01:45:00;-0.33;83.94
66213;SHT31;53015;50.046;8.238;2024-01-15T01:47:26;-0.27;84.02
66213;SHT31;53015;50.046;8.238;2024-01-15T01:49:52;-0.29;84.28
66213;SHT31;53015;50.046;8.238;2024-01-15T01:52:18;-0.33;84.15
66213;SHT31;53015;50.046;8.238;2024-01-15T01:54:45;-0.34;83.74
66213;SHT31;53015;50.046;8.238;2024-01-15T01:57:12;-0.31;84.09
66213;SHT31;53015;50.046;8.238;2024-01-15T01:59:38;-0.24;84.12
66213;SHT31;53015;50.046;8.238;2024-01-15T02:02:03;-0.21;84.01
66213;SHT31;53015;50.046;8.238;2024-01-15T02:04:30;-0.19;84.15
66213;SHT31;53015;50.046;8.238;2024-01-15T02:06:56;-0.07;84.25
66213;SHT31;53015;50.046;8.238;2024-01-15T02:09:22;-0.10;83.58
66213;SHT31;53015;50.046;8.238;2024-01-15T02:11:49;-0.02;83.51
66213;SHT31;53015;50.046;8.238;2024-01-15T02:14:15;-0.02;83.28
66213;SHT31;53015;50.046;8.238;2024-01-15T02:16:41;-0.01;83.04
66213;SHT31;53015;50.046;8.238;2024-01-15T02:19:06;0.14;83.59
66213;SHT31;53015;50.046;8.238;2024-01-15T02:21:32;0.01;83.47
66213;SHT31;53015;50.046;8.238;2024-01-15T02:23:59;0.12;83.63
66213;SHT31;53015;50.046;8.238;2024-01-15T02:26:25;0.11;82.97
66213;SHT31;53015;50.046;8.238;2024-01-15T02:28:51;0.17;83.04
66213;SHT31;53015;50.046;8.238;2024-01-15T02:31:17;0.15;83.08
66213;SHT31;53015;50.046;8.238;2024-01-15T02:33:42;0.24;83.64
66213;SHT31;53015;50.046;8.238;2024-01-15T02:36:08;0.24;82.64
66213;SHT31;53015;50.046;8.238;2024-01-15T02:38:34;0.25;83.15
66213;SHT31;53015;50.046;8.238;2024-01-15T02:41:01;0.26;83.12
66213;SHT31;53015;50.046;8.238;2024-01-15T02:43:26;0.21;83.20
66213;SHT31;53015;50.046;8.238;2024-01-15T02:45:52;0.09;83.30
66213;SHT31;53015;50.046;8.238;2024-01-15T02:48:18;0.11;83.52
66213;SHT31;53015;50.046;8.238;2024-01-15T02:50:44;0.08;83.90
66213;SHT31;53015;50.046;8.238;2024-01-15T02:53:09;0.04;84.18
66213;SHT31;53015;50.046;8.238;2024-01-15T02:55:35;0.04;84.35
66213;SHT31;53015;50.046;8.238;2024-01-15T02:58:02;-0.05;84.61
66213;SHT31;53015;50.046;8.238;2024-01-15T03:00:28;-0.07;84.89
66213;SHT31;53015;50.046;8.238;2024-01-15T03:02:54;-0.12;84.71
66213;SHT31;53015;50.046;8.238;2024-01-15T03:05:20;-0.19;84.90
66213;SHT31;53015;50.046;8.238;2024-01-15T03:07:46;-0.20;85.42
66213;SHT31;53015;50.046;8.238;2024-01-15T03:10:11;-0.14;84.80
66213;SHT31;53015;50.046;8.238;2024-01-15T03:12:37;-0.17;84.65
66213;SHT31;53015;50.046;8.238;2024-01-15T03:15:05;-0.19;85.05
66213;SHT31;53015;50.046;8.238;2024-01-15T03:17:30;-0.14;84.82
66213;SHT31;53015;50.046;8.238;2024-01-15T03:19:56;-0.20;84.56
66213;SHT31;53015;50.046;8.238;2024-01-15T03:22:22;-0.19;84.65
66213;SHT31;53015;50.046;8.238;2024-01-15T03:24:48;-0.26;84.83
66213;SHT31;53015;50.046;8.238;2024-01-15T03:27:13;-0.21;85.25
66213;SHT31;53015;50.046;8.238;2024-01-15T03:29:40;-0.16;85.21
66213;SHT31;53015;50.046;8.238;2024-01-15T03:32:07;-0.10;84.95
66213;SHT31;53015;50.046;8.238;2024-01-15T03:34:32;-0.07;84.64
66213;SHT31;53015;50.046;8.238;2024-01-15T03:36:58;-0.12;84.51
66213;SHT31;53015;50.046;8.238;2024-01-15T03:39:23;-0.16;84.63
66213;SHT31;53015;50.046;8.238;2024-01-15T03:41:49;-0.13;84.29
66213;SHT31;53015;50.046;8.238;2024-01-15T03:44:14;-0.10;84.38
66213;SHT31;53015;50.046;8.238;2024-01-15T03:46:40;-0.13;84.24
66213;SHT31;53015;50.046;8.238;2024-01-15T03:49:08;-0.10;84.15
66213;SHT31;53015;50.046;8.238;2024-01-15T03:51:35;-0.16;85.09
66213;SHT31;53015;50.046;8.238;2024-01-15T03:54:01;-0.02;84.41
66213;SHT31;53015;50.046;8.238;2024-01-15T03:56:26;0.05;84.04
66213;SHT31;53015;50.046;8.238;2024-01-15T03:58:52;-0.05;84.13
66213;SHT31;53015;50.046;8.238;2024-01-15T04:01:17;-0.12;84.91
66213;SHT31;53015;50.046;8.238;2024-01-15T04:03:43;-0.02;85.08
66213;SHT31;53015;50.046;8.238;2024-01-15T04:06:10;-0.05;85.21
66213;SHT31;53015;50.046;8.238;2024-01-15T04:08:35;-0.12;85.62
66213;SHT31;53015;50.046;8.238;2024-01-15T04:11:01;-0.13;86.16
66213;SHT31;53015;50.046;8.238;2024-01-15T04:13:26;-0.16;86.58
66213;SHT31;53015;50.046;8.238;2024-01-15T04:15:52;-0.06;86.28
66213;SHT31;53015;50.046;8.238;2024-01-15T04:18:17;-0.07;86.40
66213;SHT31;53015;50.046;8.238;2024-01-15T04:20:43;-0.09;86.15
66213;SHT31;53015;50.046;8.238;2024-01-15T04:23:10;-0.09;85.79
66213;SHT31;53015;50.046;8.238;2024-01-15T04:25:35;-0.07;85.70
66213;SHT31;53015;50.046;8.238;2024-01-15T04:28:01;-0.10;85.27
66213;SHT31;53015;50.046;8.238;2024-01-15T04:30:26;-0.03;85.86
66213;SHT31;53015;50.046;8.238;2024-01-15T04:32:53;-0.03;86.70
66213;SHT31;53015;50.046;8.238;2024-01-15T04:35:18;0.04;86.61
66213;SHT31;53015;50.046;8.238;2024-01-15T04:37:44;-0.03;86.81
66213;SHT31;53015;50.046;8.238;2024-01-15T04:40:11;-0.05;86.75
66213;SHT31;53015;50.046;8.238;2024-01-15T04:42:37;-0.06;87.71
66213;SHT31;53015;50.046;8.238;2024-01-15T04:45:03;0.01;87.21
66213;SHT31;53015;50.046;8.238;2024-01-15T04:47:29;0.01;87.31
66213;SHT31;53015;50.046;8.238;2024-01-15T04:49:54;0.08;87.46
66213;SHT31;53015;50.046;8.238;2024-01-15T04:52:20;0.17;86.38
66213;SHT31;53015;50.046;8.238;2024-01-15T04:54:45;0.18;85.46
66213;SHT31;53015;50.046;8.238;2024-01-15T04:57:12;0.17;85.09
66213;SHT31;53015;50.046;8.238;2024-01-15T04:59:38;0.15;85.55
66213;SHT31;53015;50.046;8.238;2024-01-15T05:02:03;0.25;85.52
66213;SHT31;53015;50.046;8.238;2024-01-15T05:04:29;0.24;84.89
66213;SHT31;53015;50.046;8.238;2024-01-15T05:06:55;0.25;85.14
66213;SHT31;53015;50.046;8.238;2024-01-15T05:09:20;0.26;85.07
66213;SHT31;53015;50.046;8.238;2024-01-15T05:11:46;0.25;85.15
66213;SHT31;53015;50.046;8.238;2024-01-15T05:14:13;0.18;85.78
66213;SHT31;53015;50.046;8.238;2024-01-15T05:16:38;0.30;86.15
66213;SHT31;53015;50.046;8.238;2024-01-15T05:19:04;0.22;85.53
66213;SHT31;53015;50.046;8.238;2024-01-15T05:21:29;0.38;86.25
66213;SHT31;53015;50.046;8.238;2024-01-15T05:23:54;0.28;86.91
66213;SHT31;53015;50.046;8.238;2024-01-15T05:26:20;0.36;87.97
66213;SHT31;53015;50.046;8.238;2024-01-15T05:28:45;0.33;88.45
66213;SHT31;53015;50.046;8.238;2024-01-15T05:31:12;0.24;89.19
66213;SHT31;53015;50.046;8.238;2024-01-15T05:33:38;0.05;89.94
66213;SHT31;53015;50.046;8.238;2024-01-15T05:36:04;0.04;90.71
66213;SHT31;53015;50.046;8.238;2024-01-15T05:38:29;0.18;91.52
66213;SHT31;53015;50.046;8.238;2024-01-15T05:40:55;0.15;90.45
66213;SHT31;53015;50.046;8.238;2024-01-15T05:43:20;0.11;90.75
66213;SHT31;53015;50.046;8.238;2024-01-15T05:45:46;0.02;90.47
66213;SHT31;53015;50.046;8.238;2024-01-15T05:48:13;0.02;90.41
66213;SHT31;53015;50.046;8.238;2024-01-15T05:50:38;0.12;90.73
66213;SHT31;53015;50.046;8.238;2024-01-15T05:53:04;0.04;90.32
66213;SHT31;53015;50.046;8.238;2024-01-15T05:55:29;0.15;90.39
66213;SHT31;53015;50.046;8.238;2024-01-15T05:57:55;0.24;90.03
66213;SHT31;53015;50.046;8.238;2024-01-15T06:00:20;0.15;89.25
66213;SHT31;53015;50.046;8.238;2024-01-15T06:02:46;0.26;89.46
66213;SHT31;53015;50.046;8.238;2024-01-15T06:05:13;0.28;89.41
66213;SHT31;53015;50.046;8.238;2024-01-15T06:07:38;0.33;89.32
66213;SHT31;53015;50.046;8.238;2024-01-15T06:10:04;0.43;88.70
66213;SHT31;53015;50.046;8.238;2024-01-15T06:12:30;0.33;87.71
66213;SHT31;53015;50.046;8.238;2024-01-15T06:14:56;0.35;87.48
66213;SHT31;53015;50.046;8.238;2024-01-15T06:17:21;0.41;87.32
66213;SHT31;53015;50.046;8.238;2024-01-15T06:19:47;0.36;87.27
66213;SHT31;53015;50.046;8.238;2024-01-15T06:22:14;0.48;87.44
66213;SHT31;53015;50.046;8.238;2024-01-15T06:24:39;0.52;86.85
66213;SHT31;53015;50.046;8.238;2024-01-15T06:27:05;0.49;86.99
66213;SHT31;53015;50.046;8.238;2024-01-15T06:29:30;0.48;87.83
66213;SHT31;53015;50.046;8.238;2024-01-15T06:31:55;0.36;87.62
66213;SHT31;53015;50.046;8.238;2024-01-15T06:34:21;0.24;88.41
66213;SHT31;53015;50.046;8.238;2024-01-15T06:36:46;0.26;88.20
66213;SHT31;53015;50.046;8.238;2024-01-15T06:39:13;0.14;88.22
66213;SHT31;53015;50.046;8.238;2024-01-15T06:41:39;0.17;88.89
66213;SHT31;53015;50.046;8.238;2024-01-15T06:44:04;0.24;89.00
66213;SHT31;53015;50.046;8.238;2024-01-15T06:46:30;0.32;89.01
66213;SHT31;53015;50.046;8.238;2024-01-15T06:48:55;0.30;88.83
66213;SHT31;53015;50.046;8.238;2024-01-15T06:51:21;0.35;88.36
66213;SHT31;53015;50.046;8.238;2024-01-15T06:53:46;0.30;88.67
66213;SHT31;53015;50.046;8.238;2024-01-15T06:56:13;0.39;88.55
66213;SHT31;53015;50.046;8.238;2024-01-15T06:58:38;0.36;88.49
66213;SHT31;53015;50.046;8.238;2024-01-15T07:01:04;0.49;88.86
66213;SHT31;53015;50.046;8.238;2024-01-15T07:03:29;0.60;88.58
66213;SHT31;53015;50.046;8.238;2024-01-15T07:05:55;0.59;87.05
66213;SHT31;53015;50.046;8.238;2024-01-15T07:08:20;0.63;87.26
66213;SHT31;53015;50.046;8.238;2024-01-15T07:10:46;0.60;87.19
66213;SHT31;53015;50.046;8.238;2024-01-15T07:13:13;0.80;87.07
66213;SHT31;53015;50.046;8.238;2024-01-15T07:15:38;0.85;86.99
66213;SHT31;53015;50.046;8.238;2024-01-15T07:18:05;0.88;86.85
66213;SHT31;53015;50.046;8.238;2024-01-15T07:20:30;0.88;86.43
66213;SHT31;53015;50.046;8.238;2024-01-15T07:22:56;0.81;85.63
66213;SHT31;53015;50.046;8.238;2024-01-15T07:25:21;0.64;86.01
66213;SHT31;53015;50.046;8.238;2024-01-15T07:27:47;0.63;86.53
66213;SHT31;53015;50.046;8.238;2024-01-15T07:30:14;0.62;86.57
66213;SHT31;53015;50.046;8.238;2024-01-15T07:32:39;0.63;86.32
66213;SHT31;53015;50.046;8.238;2024-01-15T07:35:05;0.64;86.60
66213;SHT31;53015;50.046;8.238;2024-01-15T07:37:31;0.64;86.66
66213;SHT31;53015;50.046;8.238;2024-01-15T07:39:56;0.76;86.90
66213;SHT31;53015;50.046;8.238;2024-01-15T07:42:22;0.79;86.67
66213;SHT31;53015;50.046;8.238;2024-01-15T07:44:47;0.81;86.99
66213;SHT31;53015;50.046;8.238;2024-01-15T07:47:14;0.94;86.58
66213;SHT31;53015;50.046;8.238;2024-01-15T07:49:40;1.07;85.89
66213;SHT31;53015;50.046;8.238;2024-01-15T07:52:05;1.08;86.01
66213;SHT31;53015;50.046;8.238;2024-01-15T07:54:31;1.15;85.94
66213;SHT31;53015;50.046;8.238;2024-01-15T07:56:57;1.14;85.71
66213;SHT31;53015;50.046;8.238;2024-01-15T07:59:22;1.04;85.36
66213;SHT31;53015;50.046;8.238;2024-01-15T08:01:48;1.04;85.09
66213;SHT31;53015;50.046;8.238;2024-01-15T08:04:15;1.15;84.99
66213;SHT31;53015;50.046;8.238;2024-01-15T08:06:40;1.25;84.72
66213;SHT31;53015;50.046;8.238;2024-01-15T08:09:06;1.31;85.42
66213;SHT31;53015;50.046;8.238;2024-01-15T08:11:31;1.38;85.02
66213;SHT31;53015;50.046;8.238;2024-01-15T08:13:57;1.36;84.97
66213;SHT31;53015;50.046;8.238;2024-01-15T08:16:23;1.43;84.86
66213;SHT31;53015;50.046;8.238;2024-01-15T08:18:48;1.45;84.92
66213;SHT31;53015;50.046;8.238;2024-01-15T08:21:15;1.40;84.30
66213;SHT31;53015;50.046;8.238;2024-01-15T08:23:41;1.31;85.07
66213;SHT31;53015;50.046;8.238;2024-01-15T08:26:06;1.32;84.98
66213;SHT31;53015;50.046;8.238;2024-01-15T08:28:32;1.40;84.46
66213;SHT31;53015;50.046;8.238;2024-01-15T08:30:57;1.49;84.55
66213;SHT31;53015;50.046;8.238;2024-01-15T08:33:23;1.55;84.53
66213;SHT31;53015;50.046;8.238;2024-01-15T08:35:48;1.63;84.56
66213;SHT31;53015;50.046;8.238;2024-01-15T08:38:15;1.53;84.87
66213;SHT31;53015;50.046;8.238;2024-01-15T08:40:41;1.29;85.34
66213;SHT31;53015;50.046;8.238;2024-01-15T08:43:06;1.38;84.93
66213;SHT31;53015;50.046;8.238;2024-01-15T08:45:32;1.32;85.14
66213;SHT31;53015;50.046;8.238;2024-01-15T08:47:58;1.43;84.99
66213;SHT31;53015;50.046;8.238;2024-01-15T08:50:23;1.66;84.15
66213;SHT31;53015;50.046;8.238;2024-01-15T08:52:49;1.71;83.03
66213;SHT31;53015;50.046;8.238;2024-01-15T08:55:15;1.62;83.10
66213;SHT31;53015;50.046;8.238;2024-01-15T08:57:41;1.55;83.91
66213;SHT31;53015;50.046;8.238;2024-01-15T09:00:07;1.66;84.14
66213;SHT31;53015;50.046;8.238;2024-01-15T09:02:33;1.67;84.12
66213;SHT31;53015;50.046;8.238;2024-01-15T09:04:58;1.60;83.88
66213;SHT31;53015;50.046;8.238;2024-01-15T09:07:24;1.53;83.65
66213;SHT31;53015;50.046;8.238;2024-01-15T09:09:49;1.50;83.70
66213;SHT31;53015;50.046;8.238;2024-01-15T09:12:16;1.48;83.90
66213;SHT31;53015;50.046;8.238;2024-01-15T09:14:42;1.59;83.74
66213;SHT31;53015;50.046;8.238;2024-01-15T09:17:07;1.64;83.82
66213;SHT31;53015;50.046;8.238;2024-01-15T09:19:33;1.55;83.00
66213;SHT31;53015;50.046;8.238;2024-01-15T09:21:59;1.57;83.07
66213;SHT31;53015;50.046;8.238;2024-01-15T09:24:24;1.78;83.20
66213;SHT31;53015;50.046;8.238;2024-01-15T09:26:50;1.78;83.18
66213;SHT31;53015;50.046;8.238;2024-01-15T09:29:18;1.74;83.70
66213;SHT31;53015;50.046;8.238;2024-01-15T09:31:43;1.86;82.58
66213;SHT31;53015;50.046;8.238;2024-01-15T09:34:09;1.94;83.02
66213;SHT31;53015;50.046;8.238;2024-01-15T09:36:39;1.98;83.15
66213;SHT31;53015;50.046;8.238;2024-01-15T09:39:05;1.95;82.39
66213;SHT31;53015;50.046;8.238;2024-01-15T09:41:31;2.08;82.82
66213;SHT31;53015;50.046;8.238;2024-01-15T09:43:56;2.07;82.31
66213;SHT31;53015;50.046;8.238;2024-01-15T09:46:23;2.10;81.95
66213;SHT31;53015;50.046;8.238;2024-01-15T09:48:49;2.20;81.76
66213;SHT31;53015;50.046;8.238;2024-01-15T09:51:15;2.25;81.25
66213;SHT31;53015;50.046;8.238;2024-01-15T09:53:41;2.22;81.31
66213;SHT31;53015;50.046;8.238;2024-01-15T09:56:08;2.42;81.44
66213;SHT31;53015;50.046;8.238;2024-01-15T09:58:36;2.59;80.84
66213;SHT31;53015;50.046;8.238;2024-01-15T10:01:02;2.70;80.83
66213;SHT31;53015;50.046;8.238;2024-01-15T10:03:30;2.77;80.74
66213;SHT31;53015;50.046;8.238;2024-01-15T10:05:59;2.70;80.71
66213;SHT31;53015;50.046;8.238;2024-01-15T10:08:25;2.76;79.71
66213;SHT31;53015;50.046;8.238;2024-01-15T10:10:51;2.64;80.23
66213;SHT31;53015;50.046;8.238;2024-01-15T10:13:16;2.73;79.85
66213;SHT31;53015;50.046;8.238;2024-01-15T10:15:45;2.61;80.14
66213;SHT31;53015;50.046;8.238;2024-01-15T10:18:11;2.66;79.96
66213;SHT31;53015;50.046;8.238;2024-01-15T10:20:38;2.63;80.18
66213;SHT31;53015;50.046;8.238;2024-01-15T10:23:05;2.63;80.63
66213;SHT31;53015;50.046;8.238;2024-01-15T10:25:30;2.59;79.90
66213;SHT31;53015;50.046;8.238;2024-01-15T10:28:00;2.66;80.52
66213;SHT31;53015;50.046;8.238;2024-01-15T10:30:26;2.57;80.79
66213;SHT31;53015;50.046;8.238;2024-01-15T10:32:57;2.53;81.39
66213;SHT31;53015;50.046;8.238;2024-01-15T10:35:26;2.46;80.81
66213;SHT31;53015;50.046;8.238;2024-01-15T10:37:53;2.29;81.61
66213;SHT31;53015;50.046;8.238;2024-01-15T10:40:19;2.35;81.97
66213;SHT31;53015;50.046;8.238;2024-01-15T10:42:44;2.49;80.83
66213;SHT31;53015;50.046;8.238;2024-01-15T10:45:10;2.54;80.49
66213;SHT31;53015;50.046;8.238;2024-01-15T10:47:36;2.59;80.78
66213;SHT31;53015;50.046;8.238;2024-01-15T10:50:01;2.77;81.39
66213;SHT31;53015;50.046;8.238;2024-01-15T10:52:27;2.75;80.37
66213;SHT31;53015;50.046;8.238;2024-01-15T10:54:54;2.73;80.44
66213;SHT31;53015;50.046;8.238;2024-01-15T10:57:23;2.69;80.80
66213;SHT31;53015;50.046;8.238;2024-01-15T10:59:50;2.46;81.35
66213;SHT31;53015;50.046;8.238;2024-01-15T11:02:15;2.35;81.31
66213;SHT31;53015;50.046;8.238;2024-01-15T11:04:41;2.36;81.89
66213;SHT31;53015;50.046;8.238;2024-01-15T11:07:07;2.38;82.08
66213;SHT31;53015;50.046;8.238;2024-01-15T11:09:33;2.67;81.27
66213;SHT31;53015;50.046;8.238;2024-01-15T11:12:10;2.97;80.42
66213;SHT31;53015;50.046;8.238;2024-01-15T11:14:39;3.09;79.98
66213;SHT31;53015;50.046;8.238;2024-01-15T11:17:06;3.03;79.71
66213;SHT31;53015;50.046;8.238;2024-01-15T11:19:38;3.00;80.31
66213;SHT31;53015;50.046;8.238;2024-01-15T11:22:08;2.98;80.14
66213;SHT31;53015;50.046;8.238;2024-01-15T11:24:38;3.00;80.26
66213;SHT31;53015;50.046;8.238;2024-01-15T11:27:05;2.97;80.28
66213;SHT31;53015;50.046;8.238;2024-01-15T11:29:33;2.87;80.59
66213;SHT31;53015;50.046;8.238;2024-01-15T11:32:05;2.70;81.18
66213;SHT31;53015;50.046;8.238;2024-01-15T11:34:54;2.77;81.05
66213;SHT31;53015;50.046;8.238;2024-01-15T11:37:20;2.76;80.84
66213;SHT31;53015;50.046;8.238;2024-01-15T11:39:47;2.77;80.57
66213;SHT31;53015;50.046;8.238;2024-01-15T11:42:14;2.83;80.36
66213;SHT31;53015;50.046;8.238;2024-01-15T11:44:41;2.87;80.80
66213;SHT31;53015;50.046;8.238;2024-01-15T11:47:08;2.87;80.28
66213;SHT31;53015;50.046;8.238;2024-01-15T11:52:32;2.94;79.91
66213;SHT31;53015;50.046;8.238;2024-01-15T11:55:01;3.09;80.03
66213;SHT31;53015;50.046;8.238;2024-01-15T11:57:34;3.14;79.81
66213;SHT31;53015;50.046;8.238;2024-01-15T12:00:05;3.19;78.91
66213;SHT31;53015;50.046;8.238;2024-01-15T12:02:31;3.21;78.45
66213;SHT31;53015;50.046;8.238;2024-01-15T12:04:56;3.28;78.70
66213;SHT31;53015;50.046;8.238;2024-01-15T12:07:22;3.35;79.15
66213;SHT31;53015;50.046;8.238;2024-01-15T12:09:48;3.28;78.50
66213;SHT31;53015;50.046;8.238;2024-01-15T12:12:19;3.18;78.37
66213;SHT31;53015;50.046;8.238;2024-01-15T12:14:46;3.19;78.49
66213;SHT31;53015;50.046;8.238;2024-01-15T12:17:13;3.09;78.63
66213;SHT31;53015;50.046;8.238;2024-01-15T12:19:38;3.07;78.61
66213;SHT31;53015;50.046;8.238;2024-01-15T12:22:05;3.05;79.20
66213;SHT31;53015;50.046;8.238;2024-01-15T12:24:31;3.01;78.98
66213;SHT31;53015;50.046;8.238;2024-01-15T12:26:56;3.03;78.84
66213;SHT31;53015;50.046;8.238;2024-01-15T12:29:22;3.11;79.06
66213;SHT31;53015;50.046;8.238;2024-01-15T12:31:48;2.98;78.57
66213;SHT31;53015;50.046;8.238;2024-01-15T12:34:14;3.11;78.84
66213;SHT31;53015;50.046;8.238;2024-01-15T12:36:40;3.11;78.51
66213;SHT31;53015;50.046;8.238;2024-01-15T12:39:05;3.19;78.30
66213;SHT31;53015;50.046;8.238;2024-01-15T12:41:31;3.24;78.21
66213;SHT31;53015;50.046;8.238;2024-01-15T12:43:56;3.24;78.15
66213;SHT31;53015;50.046;8.238;2024-01-15T12:46:23;3.35;78.09
66213;SHT31;53015;50.046;8.238;2024-01-15T12:48:48;3.32;78.04
66213;SHT31;53015;50.046;8.238;2024-01-15T12:51:16;3.25;77.58
66213;SHT31;53015;50.046;8.238;2024-01-15T12:53:41;3.39;77.86
66213;SHT31;53015;50.046;8.238;2024-01-15T12:56:07;3.40;77.69
66213;SHT31;53015;50.046;8.238;2024-01-15T12:58:32;3.40;77.38
66213;SHT31;53015;50.046;8.238;2024-01-15T13:00:58;3.39;77.84
66213;SHT31;53015;50.046;8.238;2024-01-15T13:03:23;3.38;77.65
66213;SHT31;53015;50.046;8.238;2024-01-15T13:05:49;3.32;77.80
66213;SHT31;53015;50.046;8.238;2024-01-15T13:08:16;3.36;77.68
66213;SHT31;53015;50.046;8.238;2024-01-15T13:10:42;3.31;77.36
66213;SHT31;53015;50.046;8.238;2024-01-15T13:13:07;3.35;77.75
66213;SHT31;53015;50.046;8.238;2024-01-15T13:15:33;3.45;77.07
66213;SHT31;53015;50.046;8.238;2024-01-15T13:17:58;3.51;77.42
66213;SHT31;53015;50.046;8.238;2024-01-15T13:20:24;3.48;77.50
66213;SHT31;53015;50.046;8.238;2024-01-15T13:22:49;3.48;77.71
66213;SHT31;53015;50.046;8.238;2024-01-15T13:25:16;3.51;77.53
66213;SHT31;53015;50.046;8.238;2024-01-15T13:27:41;3.46;77.39
66213;SHT31;53015;50.046;8.238;2024-01-15T13:30:08;3.46;77.90
66213;SHT31;53015;50.046;8.238;2024-01-15T13:32:34;3.48;78.29
66213;SHT31;53015;50.046;8.238;2024-01-15T13:34:59;3.43;79.19
66213;SHT31;53015;50.046;8.238;2024-01-15T13:37:25;3.53;80.41
66213;SHT31;53015;50.046;8.238;2024-01-15T13:39:50;3.51;81.11
66213;SHT31;53015;50.046;8.238;2024-01-15T13:42:17;3.51;81.53
66213;SHT31;53015;50.046;8.238;2024-01-15T13:44:43;3.53;81.44
66213;SHT31;53015;50.046;8.238;2024-01-15T13:47:08;3.72;80.11
66213;SHT31;53015;50.046;8.238;2024-01-15T13:49:34;3.73;79.90
66213;SHT31;53015;50.046;8.238;2024-01-15T13:51:59;3.73;78.52
66213;SHT31;53015;50.046;8.238;2024-01-15T13:54:24;3.59;78.54
66213;SHT31;53015;50.046;8.238;2024-01-15T13:56:50;3.60;78.15
66213;SHT31;53015;50.046;8.238;2024-01-15T13:59:17;3.48;78.34
66213;SHT31;53015;50.046;8.238;2024-01-15T14:01:42;3.45;78.33
66213;SHT31;53015;50.046;8.238;2024-01-15T14:04:08;3.39;78.59
66213;SHT31;53015;50.046;8.238;2024-01-15T14:06:33;3.36;78.99
66213;SHT31;53015;50.046;8.238;2024-01-15T14:08:59;3.31;78.54
66213;SHT31;53015;50.046;8.238;2024-01-15T14:11:24;3.39;78.82
66213;SHT31;53015;50.046;8.238;2024-01-15T14:13:50;3.36;78.59
66213;SHT31;53015;50.046;8.238;2024-01-15T14:16:17;3.45;78.30
66213;SHT31;53015;50.046;8.238;2024-01-15T14:18:42;3.38;77.70
66213;SHT31;53015;50.046;8.238;2024-01-15T14:21:08;3.29;78.10
66213;SHT31;53015;50.046;8.238;2024-01-15T14:23:33;3.19;78.37
66213;SHT31;53015;50.046;8.238;2024-01-15T14:25:59;3.26;78.14
66213;SHT31;53015;50.046;8.238;2024-01-15T14:28:24;3.25;78.65
66213;SHT31;53015;50.046;8.238;2024-01-15T14:30:50;3.32;78.03
66213;SHT31;53015;50.046;8.238;2024-01-15T14:33:16;3.28;77.67
66213;SHT31;53015;50.046;8.238;2024-01-15T14:35:42;3.38;78.06
66213;SHT31;53015;50.046;8.238;2024-01-15T14:38:07;3.38;77.73
66213;SHT31;53015;50.046;8.238;2024-01-15T14:40:34;3.45;77.82
66213;SHT31;53015;50.046;8.238;2024-01-15T14:42:59;3.45;77.57
66213;SHT31;53015;50.046;8.238;2024-01-15T14:45:25;3.42;77.40
66213;SHT31;53015;50.046;8.238;2024-01-15T14:47:50;3.46;77.47
66213;SHT31;53015;50.046;8.238;2024-01-15T14:50:17;3.49;77.68
66213;SHT31;53015;50.046;8.238;2024-01-15T14:52:42;3.46;77.28
66213;SHT31;53015;50.046;8.238;2024-01-15T14:55:08;3.46;77.02
66213;SHT31;53015;50.046;8.238;2024-01-15T14:57:33;3.53;77.23
66213;SHT31;53015;50.046;8.238;2024-01-15T14:59:59;3.46;76.92
66213;SHT31;53015;50.046;8.238;2024-01-15T15:02:24;3.42;77.14
66213;SHT31;53015;50.046;8.238;2024-01-15T15:04:50;3.43;77.01
66213;SHT31;53015;50.046;8.238;2024-01-15T15:07:17;3.36;77.09
66213;SHT31;53015;50.046;8.238;2024-01-15T15:09:42;3.36;77.09
66213;SHT31;53015;50.046;8.238;2024-01-15T15:12:08;3.34;77.23
66213;SHT31;53015;50.046;8.238;2024-01-15T15:14:33;3.22;77.88
66213;SHT31;53015;50.046;8.238;2024-01-15T15:16:59;3.09;77.61
66213;SHT31;53015;50.046;8.238;2024-01-15T15:19:24;3.01;77.36
66213;SHT31;53015;50.046;8.238;2024-01-15T15:21:49;3.00;77.49
66213;SHT31;53015;50.046;8.238;2024-01-15T15:24:16;2.94;77.78
66213;SHT31;53015;50.046;8.238;2024-01-15T15:26:42;2.93;77.61
66213;SHT31;53015;50.046;8.238;2024-01-15T15:29:07;2.98;77.64
66213;SHT31;53015;50.046;8.238;2024-01-15T15:31:33;2.91;77.30
66213;SHT31;53015;50.046;8.238;2024-01-15T15:33:58;2.90;77.16
66213;SHT31;53015;50.046;8.238;2024-01-15T15:36:23;2.87;77.60